createdAt,value
2022-11-27T00:00:25.307Z,36.72
2022-11-27T00:01:46.436Z,35.19
2022-11-27T00:03:07.577Z,35.62
2022-11-27T00:04:28.982Z,33.54
2022-11-27T00:07:04.127Z,35.38
2022-11-27T00:08:25.674Z,33.70
2022-11-27T00:09:47.154Z,33.69
2022-11-27T00:11:09.774Z,31.07
2022-11-27T00:12:30.969Z,31.37
2022-11-27T00:13:52.488Z,31.42
2022-11-27T00:15:17.239Z,33.49
2022-11-27T00:16:37.076Z,34.67
2022-11-27T00:17:58.259Z,31.22
2022-11-27T00:19:19.434Z,34.05
2022-11-27T00:20:43.356Z,33.30
2022-11-27T00:22:04.539Z,33.07
2022-11-27T00:23:26.112Z,34.51
2022-11-27T00:24:48.222Z,32.18
2022-11-27T00:26:09.922Z,33.29
2022-11-27T00:27:31.374Z,33.20
2022-11-27T00:28:52.457Z,31.82
2022-11-27T00:30:14.344Z,35.13
2022-11-27T00:31:35.884Z,34.81
2022-11-27T00:32:57.195Z,38.99
2022-11-27T00:34:21.905Z,37.01
2022-11-27T00:35:43.559Z,35.60
2022-11-27T00:37:05.211Z,34.87
2022-11-27T00:38:26.833Z,37.42
2022-11-27T00:39:48.190Z,32.01
2022-11-27T00:41:12.849Z,33.72
2022-11-27T00:42:33.870Z,35.14
2022-11-27T00:43:55.318Z,31.70
2022-11-27T00:45:16.687Z,33.71
2022-11-27T00:46:38.228Z,33.72
2022-11-27T00:47:59.323Z,31.01
2022-11-27T00:49:20.838Z,37.32
2022-11-27T00:50:41.900Z,33.26
2022-11-27T00:52:03.515Z,31.98
2022-11-27T00:53:24.932Z,32.39
2022-11-27T00:54:46.469Z,34.00
2022-11-27T00:56:08.806Z,31.77
2022-11-27T00:57:29.765Z,33.68
2022-11-27T00:58:51.319Z,32.35
2022-11-27T01:00:13.965Z,30.65
2022-11-27T01:01:37.247Z,31.18
2022-11-27T01:02:58.793Z,32.34
2022-11-27T01:04:20.384Z,29.51
2022-11-27T01:05:41.542Z,30.21
2022-11-27T01:07:02.858Z,33.77
2022-11-27T01:08:24.463Z,32.43
2022-11-27T01:09:47.176Z,31.27
2022-11-27T01:11:15.173Z,30.29
2022-11-27T01:12:36.541Z,35.07
2022-11-27T01:14:02.578Z,27.54
2022-11-27T01:15:24.305Z,29.56
2022-11-27T01:16:45.636Z,29.92
2022-11-27T01:18:07.131Z,27.97
2022-11-27T01:19:28.166Z,29.10
2022-11-27T01:20:51.715Z,29.92
2022-11-27T01:22:14.598Z,29.69
2022-11-27T01:24:57.211Z,27.86
2022-11-27T01:27:28.229Z,21.48
2022-11-27T01:30:01.289Z,21.49
2022-11-27T01:31:24.806Z,27.90
2022-11-27T01:32:46.271Z,25.02
2022-11-27T01:34:08.711Z,26.74
2022-11-27T01:35:32.064Z,26.74
2022-11-27T01:38:14.236Z,25.84
2022-11-27T01:39:35.768Z,28.80
2022-11-27T01:41:01.045Z,25.84
2022-11-27T01:42:22.373Z,27.50
2022-11-27T01:43:45.922Z,28.01
2022-11-27T01:45:08.991Z,25.08
2022-11-27T01:46:42.187Z,22.95
2022-11-27T01:48:03.716Z,23.49
2022-11-27T01:49:36.310Z,25.93
2022-11-27T01:50:57.454Z,23.58
2022-11-27T01:52:26.802Z,23.91
2022-11-27T01:53:48.112Z,23.74
2022-11-27T01:56:32.312Z,22.96
2022-11-27T01:59:26.743Z,21.42
2022-11-27T02:00:48.579Z,20.65
2022-11-27T02:02:10.058Z,19.92
2022-11-27T02:03:31.533Z,22.38
2022-11-27T02:04:53.292Z,21.36
2022-11-27T02:06:14.390Z,24.07
2022-11-27T02:07:35.497Z,22.14
2022-11-27T02:08:56.634Z,23.74
2022-11-27T02:10:18.164Z,23.77
2022-11-27T02:11:57.879Z,25.22
2022-11-27T02:15:04.445Z,24.99
2022-11-27T02:18:22.383Z,23.29
2022-11-27T02:20:02.745Z,22.24
2022-11-27T02:21:42.509Z,24.58
2022-11-27T02:23:16.540Z,24.19
2022-11-27T02:25:02.215Z,24.54
2022-11-27T02:28:23.316Z,23.18
2022-11-27T02:29:44.645Z,24.57
2022-11-27T02:31:12.499Z,26.19
2022-11-27T02:32:52.813Z,25.21
2022-11-27T02:34:26.770Z,22.72
2022-11-27T02:35:51.751Z,23.53
2022-11-27T02:37:22.641Z,24.78
2022-11-27T02:38:46.320Z,26.06
2022-11-27T02:40:32.761Z,23.42
2022-11-27T02:43:18.522Z,21.99
2022-11-27T02:44:43.756Z,23.44
2022-11-27T02:46:05.511Z,22.27
2022-11-27T02:47:27.696Z,17.97
2022-11-27T02:50:00.545Z,25.94
2022-11-27T02:52:34.103Z,27.39
2022-11-27T02:54:00.310Z,23.41
2022-11-27T02:55:24.366Z,24.99
2022-11-27T02:56:45.595Z,24.66
2022-11-27T02:58:09.531Z,26.42
2022-11-27T02:59:31.322Z,25.27
2022-11-27T03:00:52.420Z,24.91
2022-11-27T03:02:16.548Z,24.40
2022-11-27T03:03:42.523Z,23.18
2022-11-27T03:05:04.470Z,21.84
2022-11-27T03:07:58.349Z,21.99
2022-11-27T03:11:06.211Z,18.27
2022-11-27T03:12:27.752Z,22.07
2022-11-27T03:13:51.746Z,20.02
2022-11-27T03:15:12.799Z,20.17
2022-11-27T03:18:08.416Z,21.08
2022-11-27T03:20:42.637Z,20.00
2022-11-27T03:22:04.183Z,20.56
2022-11-27T03:23:26.771Z,19.96
2022-11-27T03:24:48.212Z,21.93
2022-11-27T03:26:10.535Z,19.28
2022-11-27T03:27:49.078Z,20.77
2022-11-27T03:29:12.805Z,21.50
2022-11-27T03:30:34.147Z,22.86
2022-11-27T03:31:56.216Z,21.45
2022-11-27T03:33:17.397Z,21.43
2022-11-27T03:34:39.188Z,21.66
2022-11-27T03:36:00.951Z,23.38
2022-11-27T03:37:22.503Z,23.16
2022-11-27T03:38:43.675Z,22.03
2022-11-27T03:40:05.772Z,23.93
2022-11-27T03:41:54.971Z,20.35
2022-11-27T03:44:54.469Z,19.92
2022-11-27T03:47:57.182Z,15.20
2022-11-27T03:49:25.343Z,20.06
2022-11-27T03:51:07.336Z,18.92
2022-11-27T03:52:32.485Z,19.50
2022-11-27T03:54:12.752Z,18.99
2022-11-27T03:56:10.153Z,18.48
2022-11-27T03:59:01.583Z,19.70
2022-11-27T04:00:22.972Z,19.48
2022-11-27T04:01:51.015Z,17.35
2022-11-27T04:03:12.329Z,19.31
2022-11-27T04:04:33.647Z,17.88
2022-11-27T04:05:55.295Z,19.78
2022-11-27T04:07:16.620Z,18.89
2022-11-27T04:08:38.743Z,18.61
2022-11-27T04:10:00.033Z,18.64
2022-11-27T04:11:21.595Z,19.00
2022-11-27T04:12:42.592Z,19.94
2022-11-27T04:14:03.633Z,18.68
2022-11-27T04:15:24.991Z,17.69
2022-11-27T04:16:46.865Z,19.17
2022-11-27T04:18:08.062Z,17.57
2022-11-27T04:19:29.399Z,16.27
2022-11-27T04:20:51.728Z,16.64
2022-11-27T04:22:12.894Z,16.52
2022-11-27T04:23:34.317Z,15.38
2022-11-27T04:24:55.822Z,16.59
2022-11-27T04:26:17.536Z,16.57
2022-11-27T04:27:38.886Z,18.09
2022-11-27T04:29:00.121Z,18.59
2022-11-27T04:30:21.750Z,18.30
2022-11-27T04:31:42.931Z,15.90
2022-11-27T04:33:04.379Z,15.40
2022-11-27T04:34:25.740Z,15.62
2022-11-27T04:35:47.244Z,15.74
2022-11-27T04:37:08.672Z,16.89
2022-11-27T04:38:31.081Z,17.77
2022-11-27T04:39:52.158Z,15.60
2022-11-27T04:41:14.765Z,15.53
2022-11-27T04:42:35.957Z,16.04
2022-11-27T04:43:57.036Z,15.75
2022-11-27T04:45:18.752Z,14.69
2022-11-27T04:46:41.941Z,14.94
2022-11-27T04:48:03.926Z,15.65
2022-11-27T04:49:25.250Z,15.94
2022-11-27T04:50:46.741Z,15.69
2022-11-27T04:52:08.224Z,17.36
2022-11-27T04:53:29.518Z,14.99
2022-11-27T04:55:00.224Z,15.96
2022-11-27T04:56:21.203Z,16.27
2022-11-27T04:57:42.924Z,15.07
2022-11-27T04:59:07.480Z,15.60
2022-11-27T05:00:30.948Z,17.37
2022-11-27T05:01:52.081Z,15.53
2022-11-27T05:03:13.499Z,17.21
2022-11-27T05:04:35.743Z,17.46
2022-11-27T05:05:58.671Z,16.19
2022-11-27T05:07:19.932Z,14.71
2022-11-27T05:08:42.718Z,15.82
2022-11-27T05:10:05.815Z,18.17
2022-11-27T05:11:29.001Z,17.24
2022-11-27T05:12:50.095Z,17.67
2022-11-27T05:14:11.681Z,16.27
2022-11-27T05:15:33.753Z,15.82
2022-11-27T05:16:56.949Z,16.27
2022-11-27T05:18:19.167Z,13.86
2022-11-27T05:19:43.041Z,15.71
2022-11-27T05:21:06.933Z,14.62
2022-11-27T05:22:27.891Z,14.90
2022-11-27T05:23:54.113Z,14.74
2022-11-27T05:25:18.975Z,14.39
2022-11-27T05:26:42.125Z,15.95
2022-11-27T05:28:03.753Z,15.14
2022-11-27T05:29:26.953Z,14.92
2022-11-27T05:30:48.775Z,16.59
2022-11-27T05:32:10.941Z,12.22
2022-11-27T05:33:32.454Z,13.67
2022-11-27T05:34:57.662Z,15.71
2022-11-27T05:36:21.186Z,17.14
2022-11-27T05:37:42.952Z,16.97
2022-11-27T05:39:05.136Z,17.33
2022-11-27T05:40:26.539Z,19.45
2022-11-27T05:41:47.644Z,16.78
2022-11-27T05:43:09.265Z,16.39
2022-11-27T05:44:30.792Z,18.98
2022-11-27T05:45:54.472Z,18.66
2022-11-27T05:47:15.932Z,18.33
2022-11-27T05:48:36.976Z,22.63
2022-11-27T05:49:59.707Z,21.87
2022-11-27T05:51:21.108Z,18.99
2022-11-27T05:52:42.695Z,19.20
2022-11-27T05:54:04.309Z,17.51
2022-11-27T05:55:29.712Z,17.94
2022-11-27T05:56:51.128Z,19.22
2022-11-27T05:58:12.292Z,17.97
2022-11-27T05:59:38.482Z,15.11
2022-11-27T06:00:59.941Z,19.75
2022-11-27T06:02:26.391Z,19.54
2022-11-27T06:03:44.779Z,20.01
2022-11-27T06:05:08.278Z,19.19
2022-11-27T06:06:30.820Z,18.71
2022-11-27T06:07:52.258Z,15.92
2022-11-27T06:09:14.672Z,19.37
2022-11-27T06:10:37.887Z,17.00
2022-11-27T06:11:59.232Z,17.62
2022-11-27T06:13:22.575Z,18.26
2022-11-27T06:14:43.711Z,16.67
2022-11-27T06:16:07.471Z,17.02
2022-11-27T06:17:28.901Z,15.76
2022-11-27T06:18:51.367Z,16.62
2022-11-27T06:20:14.089Z,15.11
2022-11-27T06:21:35.111Z,15.99
2022-11-27T06:22:56.879Z,14.54
2022-11-27T06:24:17.920Z,16.68
2022-11-27T06:25:39.450Z,17.71
2022-11-27T06:27:01.694Z,16.23
2022-11-27T06:28:23.308Z,16.22
2022-11-27T06:29:44.637Z,15.79
2022-11-27T06:31:17.263Z,14.03
2022-11-27T06:32:34.641Z,15.51
2022-11-27T06:33:55.971Z,16.71
2022-11-27T06:35:17.521Z,16.64
2022-11-27T06:36:38.906Z,15.25
2022-11-27T06:38:03.842Z,14.94
2022-11-27T06:39:26.454Z,17.34
2022-11-27T06:40:49.217Z,16.56
2022-11-27T06:42:10.755Z,15.16
2022-11-27T06:43:35.337Z,17.58
2022-11-27T06:45:00.079Z,17.31
2022-11-27T06:46:23.137Z,15.94
2022-11-27T06:47:46.141Z,17.72
2022-11-27T06:49:10.138Z,14.36
2022-11-27T06:50:31.700Z,15.46
2022-11-27T06:51:54.956Z,15.61
2022-11-27T06:53:16.492Z,15.53
2022-11-27T06:54:38.099Z,15.98
2022-11-27T06:56:01.280Z,15.39
2022-11-27T06:57:23.188Z,16.79
2022-11-27T06:58:44.874Z,14.99
2022-11-27T07:00:07.676Z,15.01
2022-11-27T07:01:30.727Z,15.87
2022-11-27T07:02:54.204Z,16.02
2022-11-27T07:05:39.378Z,19.28
2022-11-27T07:07:03.897Z,18.17
2022-11-27T07:08:28.174Z,21.16
2022-11-27T07:09:49.270Z,18.96
2022-11-27T07:12:31.682Z,18.44
2022-11-27T07:13:54.576Z,16.81
2022-11-27T07:15:15.744Z,19.03
2022-11-27T07:16:37.587Z,20.41
2022-11-27T07:17:59.080Z,19.01
2022-11-27T07:19:20.874Z,18.24
2022-11-27T07:20:42.086Z,19.36
2022-11-27T07:23:36.513Z,17.94
2022-11-27T07:24:58.008Z,19.01
2022-11-27T07:26:21.221Z,17.44
2022-11-27T07:29:03.735Z,19.69
2022-11-27T07:30:26.019Z,19.66
2022-11-27T07:31:47.430Z,19.27
2022-11-27T07:33:09.126Z,17.28
2022-11-27T07:34:30.466Z,17.30
2022-11-27T07:37:20.633Z,15.78
2022-11-27T07:38:43.767Z,16.54
2022-11-27T07:41:32.124Z,15.03
2022-11-27T07:44:10.334Z,12.73
2022-11-27T07:45:32.062Z,12.80
2022-11-27T07:46:53.740Z,15.54
2022-11-27T07:48:15.030Z,15.39
2022-11-27T07:49:36.455Z,16.26
2022-11-27T07:50:58.162Z,16.93
2022-11-27T07:52:19.521Z,15.12
2022-11-27T07:53:41.366Z,14.81
2022-11-27T07:55:03.656Z,15.01
2022-11-27T07:56:24.688Z,13.12
2022-11-27T07:57:46.313Z,14.79
2022-11-27T07:59:07.968Z,15.34
2022-11-27T08:00:29.505Z,14.06
2022-11-27T08:01:52.306Z,14.99
2022-11-27T08:03:13.505Z,13.96
2022-11-27T08:04:35.115Z,15.13
2022-11-27T08:05:57.071Z,17.32
2022-11-27T08:07:19.093Z,16.89
2022-11-27T08:08:42.986Z,15.04
2022-11-27T08:10:06.794Z,17.48
2022-11-27T08:11:30.128Z,14.80
2022-11-27T08:12:51.645Z,17.49
2022-11-27T08:14:12.976Z,13.83
2022-11-27T08:15:35.170Z,17.91
2022-11-27T08:16:56.548Z,14.73
2022-11-27T08:18:17.746Z,16.27
2022-11-27T08:19:39.692Z,16.21
2022-11-27T08:21:01.457Z,11.42
2022-11-27T08:22:26.478Z,20.18
2022-11-27T08:23:47.998Z,18.53
2022-11-27T08:25:09.326Z,18.51
2022-11-27T08:26:31.022Z,16.92
2022-11-27T08:27:52.425Z,16.65
2022-11-27T08:29:13.866Z,15.07
2022-11-27T08:30:35.437Z,17.52
2022-11-27T08:31:56.880Z,17.01
2022-11-27T08:33:18.350Z,17.38
2022-11-27T08:34:40.072Z,16.05
2022-11-27T08:36:02.545Z,18.50
2022-11-27T08:37:24.200Z,15.77
2022-11-27T08:38:46.216Z,21.39
2022-11-27T08:40:08.188Z,18.54
2022-11-27T08:41:29.665Z,20.71
2022-11-27T08:42:50.774Z,19.46
2022-11-27T08:44:12.522Z,20.47
2022-11-27T08:45:33.954Z,21.04
2022-11-27T08:46:59.463Z,18.21
2022-11-27T08:48:20.813Z,19.32
2022-11-27T08:49:46.211Z,16.91
2022-11-27T08:52:22.470Z,16.29
2022-11-27T08:53:43.952Z,17.44
2022-11-27T08:55:12.504Z,17.59
2022-11-27T08:56:34.155Z,24.53
2022-11-27T08:57:55.340Z,22.02
2022-11-27T08:59:17.100Z,22.99
2022-11-27T09:00:38.614Z,22.23
2022-11-27T09:02:00.035Z,18.87
2022-11-27T09:03:21.418Z,21.37
2022-11-27T09:04:44.741Z,19.88
2022-11-27T09:06:09.346Z,18.83
2022-11-27T09:07:30.846Z,19.72
2022-11-27T09:08:52.268Z,22.19
2022-11-27T09:10:13.986Z,19.17
2022-11-27T09:11:35.572Z,21.53
2022-11-27T09:12:56.946Z,22.25
2022-11-27T09:14:20.290Z,19.35
2022-11-27T09:15:44.768Z,19.51
2022-11-27T09:17:06.082Z,19.63
2022-11-27T09:18:27.555Z,21.03
2022-11-27T09:19:48.884Z,20.56
2022-11-27T09:21:11.099Z,20.14
2022-11-27T09:22:34.049Z,20.47
2022-11-27T09:23:56.260Z,19.31
2022-11-27T09:25:18.175Z,21.11
2022-11-27T09:26:40.093Z,14.86
2022-11-27T09:28:02.078Z,17.70
2022-11-27T09:29:23.505Z,18.57
2022-11-27T09:30:44.855Z,19.73
2022-11-27T09:32:06.457Z,21.13
2022-11-27T09:33:28.942Z,21.09
2022-11-27T09:34:53.533Z,20.39
2022-11-27T09:36:24.747Z,20.65
2022-11-27T09:37:46.118Z,23.56
2022-11-27T09:39:08.901Z,25.42
2022-11-27T09:40:30.960Z,23.76
2022-11-27T09:43:19.084Z,23.62
2022-11-27T09:44:45.459Z,22.12
2022-11-27T09:46:10.449Z,26.07
2022-11-27T09:48:53.381Z,20.93
2022-11-27T09:50:23.877Z,17.14
2022-11-27T09:53:15.889Z,18.47
2022-11-27T09:54:40.288Z,19.99
2022-11-27T09:56:03.132Z,18.53
2022-11-27T09:58:38.886Z,19.53
2022-11-27T10:00:04.758Z,19.27
2022-11-27T10:01:38.581Z,20.63
2022-11-27T10:02:54.362Z,18.63
2022-11-27T10:04:17.042Z,18.49
2022-11-27T10:05:57.180Z,16.06
2022-11-27T10:07:31.525Z,17.60
2022-11-27T10:09:13.181Z,17.74
2022-11-27T10:10:56.578Z,19.07
2022-11-27T10:12:28.871Z,18.37
2022-11-27T10:13:57.590Z,19.94
2022-11-27T10:15:54.034Z,19.46
2022-11-27T10:17:17.776Z,19.81
2022-11-27T10:18:47.788Z,20.62
2022-11-27T10:20:18.760Z,18.04
2022-11-27T10:23:11.852Z,17.04
2022-11-27T10:26:07.828Z,18.59
2022-11-27T10:27:41.855Z,19.08
2022-11-27T10:29:19.131Z,19.62
2022-11-27T10:30:56.149Z,20.37
2022-11-27T10:33:55.344Z,16.08
2022-11-27T10:35:18.610Z,19.57
2022-11-27T10:59:21.932Z,21.58
2022-11-27T11:25:06.425Z,23.81
2022-11-27T11:27:48.717Z,26.68
2022-11-27T11:29:33.738Z,23.12
2022-11-27T11:32:24.539Z,21.38
2022-11-27T11:33:57.514Z,18.41
2022-11-27T11:35:33.197Z,18.23
2022-11-27T11:38:28.648Z,19.62
2022-11-27T11:39:55.721Z,19.14
2022-11-27T11:41:17.586Z,19.56
2022-11-27T11:42:57.519Z,19.73
2022-11-27T11:44:24.397Z,19.67
2022-11-27T11:45:46.495Z,20.94
2022-11-27T11:47:11.844Z,21.21
2022-11-27T11:48:32.973Z,21.72
2022-11-27T11:51:16.046Z,23.50
2022-11-27T12:00:06.332Z,26.06
2022-11-27T12:01:43.423Z,23.06
2022-11-27T12:03:33.994Z,23.27
2022-11-27T12:05:04.856Z,21.53
2022-11-27T12:06:48.265Z,19.52
2022-11-27T12:08:28.841Z,20.22
2022-11-27T12:09:56.503Z,20.61
2022-11-27T12:11:21.392Z,21.54
2022-11-27T12:13:04.834Z,18.14
2022-11-27T12:14:44.806Z,22.28
2022-11-27T12:16:28.503Z,20.87
2022-11-27T12:18:09.155Z,19.28
2022-11-27T12:19:34.768Z,18.19
2022-11-27T12:21:14.648Z,19.38
2022-11-27T12:22:55.867Z,19.72
2022-11-27T12:25:41.392Z,14.82
2022-11-27T12:27:18.577Z,18.65
2022-11-27T12:28:59.769Z,20.48
2022-11-27T12:30:22.312Z,19.92
2022-11-27T12:32:05.189Z,17.24
2022-11-27T12:33:45.899Z,17.11
2022-11-27T12:37:16.495Z,18.47
2022-11-27T12:40:30.414Z,17.76
2022-11-27T12:43:27.401Z,16.81
2022-11-27T12:45:04.655Z,21.62
2022-11-27T12:46:57.030Z,17.82
2022-11-27T12:48:29.585Z,15.87
2022-11-27T12:51:28.133Z,19.46
2022-11-27T12:53:11.492Z,17.62
2022-11-27T12:54:43.894Z,17.09
2022-11-27T12:56:14.529Z,17.89
2022-11-27T12:58:01.687Z,18.32
2022-11-27T12:59:31.149Z,16.96
2022-11-27T13:00:52.535Z,16.01
2022-11-27T13:04:16.623Z,18.73
2022-11-27T13:05:40.890Z,19.87
2022-11-27T13:07:11.425Z,16.24
2022-11-27T13:08:57.620Z,19.93
2022-11-27T13:10:28.781Z,17.39
2022-11-27T13:11:49.943Z,17.69
2022-11-27T13:13:29.721Z,16.72
2022-11-27T13:14:57.715Z,16.04
2022-11-27T13:16:38.996Z,17.48
2022-11-27T13:18:16.293Z,16.07
2022-11-27T13:19:41.880Z,16.97
2022-11-27T13:21:08.499Z,17.04
2022-11-27T13:22:32.190Z,15.23
2022-11-27T13:23:53.212Z,13.99
2022-11-27T13:25:14.537Z,14.64
2022-11-27T13:26:41.286Z,13.60
2022-11-27T13:28:02.473Z,13.39
2022-11-27T13:30:58.147Z,10.26
2022-11-27T13:32:22.447Z,14.16
2022-11-27T13:33:44.768Z,14.50
2022-11-27T13:35:09.712Z,14.34
2022-11-27T13:36:40.072Z,15.38
2022-11-27T13:38:07.958Z,14.32
2022-11-27T13:39:32.742Z,16.09
2022-11-27T13:40:55.249Z,14.04
2022-11-27T13:42:22.152Z,13.08
2022-11-27T13:43:46.566Z,12.48
2022-11-27T13:45:08.517Z,12.24
2022-11-27T13:46:31.125Z,13.85
2022-11-27T13:47:52.421Z,14.34
2022-11-27T13:49:23.594Z,11.60
2022-11-27T13:50:45.264Z,13.58
2022-11-27T13:52:18.477Z,13.99
2022-11-27T13:53:42.284Z,12.71
2022-11-27T13:55:05.332Z,13.89
2022-11-27T13:56:30.229Z,12.92
2022-11-27T13:57:53.487Z,11.61
2022-11-27T14:03:23.338Z,11.67
2022-11-27T14:04:52.952Z,11.31
2022-11-27T14:07:50.453Z,11.63
2022-11-27T14:09:12.743Z,15.04
2022-11-27T14:10:35.665Z,12.92
2022-11-27T14:11:57.149Z,13.60
2022-11-27T14:13:22.426Z,13.76
2022-11-27T14:14:43.366Z,14.51
2022-11-27T14:17:27.562Z,14.32
2022-11-27T14:18:52.543Z,13.88
2022-11-27T14:20:20.722Z,13.62
2022-11-27T14:58:43.352Z,19.71
2022-11-27T15:01:35.608Z,21.33
2022-11-27T15:03:08.381Z,21.77
2022-11-27T15:04:38.916Z,17.32
2022-11-27T15:06:02.124Z,15.13
2022-11-27T15:07:26.395Z,16.06
2022-11-27T15:09:02.919Z,15.43
2022-11-27T15:11:55.195Z,18.60
2022-11-27T15:14:25.777Z,17.88
2022-11-27T15:16:08.997Z,20.13
2022-11-27T15:17:32.179Z,19.86
2022-11-27T15:20:27.622Z,14.70
2022-11-27T15:21:49.371Z,15.59
2022-11-27T15:24:29.616Z,13.39
2022-11-27T15:26:00.495Z,13.65
2022-11-27T15:27:22.296Z,10.97
2022-11-27T15:28:53.274Z,16.10
2022-11-27T15:30:23.049Z,15.27
2022-11-27T15:31:52.027Z,13.21
2022-11-27T15:34:36.421Z,13.65
2022-11-27T15:36:21.968Z,12.62
2022-11-27T15:37:43.335Z,11.34
2022-11-27T15:39:20.430Z,14.19
2022-11-27T15:40:42.574Z,11.21
2022-11-27T15:42:04.452Z,13.33
2022-11-27T15:43:30.774Z,13.07
2022-11-27T15:44:53.785Z,12.23
2022-11-27T15:46:16.372Z,18.50
2022-11-27T15:47:37.578Z,15.24
2022-11-27T15:48:59.013Z,14.96
2022-11-27T15:50:20.494Z,14.28
2022-11-27T15:51:42.989Z,13.51
2022-11-27T15:53:09.155Z,14.62
2022-11-27T15:54:30.261Z,13.85
2022-11-27T15:55:51.737Z,14.51
2022-11-27T15:57:14.227Z,11.96
2022-11-27T15:58:35.886Z,13.97
2022-11-27T15:59:57.774Z,12.97
2022-11-27T16:01:18.903Z,14.84
2022-11-27T16:02:40.917Z,11.54
2022-11-27T16:04:02.192Z,11.27
2022-11-27T16:05:23.926Z,9.93
2022-11-27T16:06:45.369Z,11.81
2022-11-27T16:08:06.673Z,11.22
2022-11-27T16:09:28.420Z,10.70
2022-11-27T16:10:49.913Z,11.61
2022-11-27T16:12:13.470Z,10.98
2022-11-27T16:13:34.856Z,12.26
2022-11-27T16:14:57.478Z,10.57
2022-11-27T16:16:19.057Z,11.21
2022-11-27T16:17:40.290Z,12.72
2022-11-27T16:19:02.025Z,11.71
2022-11-27T16:21:30.347Z,14.88
2022-11-27T16:22:51.726Z,11.26
2022-11-27T16:24:13.773Z,12.14
2022-11-27T16:25:37.987Z,11.16
2022-11-27T16:27:00.818Z,11.63
2022-11-27T16:29:33.734Z,11.57
2022-11-27T16:30:56.658Z,7.93
2022-11-27T16:32:20.202Z,9.52
2022-11-27T16:35:02.069Z,10.62
2022-11-27T16:36:24.635Z,8.83
2022-11-27T16:37:46.035Z,8.27
2022-11-27T16:39:07.546Z,10.09
2022-11-27T16:40:29.043Z,10.82
2022-11-27T16:41:50.718Z,11.13
2022-11-27T16:43:13.759Z,11.61
2022-11-27T16:47:17.195Z,11.04
2022-11-27T16:48:40.680Z,11.59
2022-11-27T16:50:05.376Z,11.75
2022-11-27T16:51:28.064Z,9.93
2022-11-27T16:52:54.399Z,13.67
2022-11-27T16:55:33.480Z,13.12
2022-11-27T16:56:55.099Z,10.76
2022-11-27T16:58:17.457Z,12.17
2022-11-27T16:59:39.240Z,12.33
2022-11-27T17:02:25.105Z,12.91
2022-11-27T17:03:46.667Z,9.63
2022-11-27T17:05:09.029Z,8.14
2022-11-27T17:06:31.845Z,9.25
2022-11-27T17:07:53.560Z,9.68
2022-11-27T17:09:18.436Z,9.79
2022-11-27T17:10:40.054Z,9.57
2022-11-27T17:12:04.466Z,8.88
2022-11-27T17:13:30.248Z,9.33
2022-11-27T17:14:51.782Z,8.47
2022-11-27T17:16:13.762Z,10.38
2022-11-27T17:17:39.929Z,8.68
2022-11-27T17:19:00.209Z,10.64
2022-11-27T17:20:21.450Z,10.18
2022-11-27T17:21:44.107Z,12.19
2022-11-27T17:23:05.576Z,9.83
2022-11-27T17:24:26.918Z,9.86
2022-11-27T17:25:48.943Z,9.23
2022-11-27T17:27:10.603Z,6.77
2022-11-27T17:28:32.251Z,10.62
2022-11-27T17:29:53.895Z,9.25
2022-11-27T17:33:47.480Z,13.23
2022-11-27T17:35:09.047Z,11.42
2022-11-27T17:36:36.518Z,11.06
2022-11-27T17:37:54.622Z,9.89
2022-11-27T17:39:16.288Z,11.56
2022-11-27T17:40:38.054Z,11.47
2022-11-27T17:41:59.177Z,10.72
2022-11-27T17:43:20.716Z,11.42
2022-11-27T17:44:43.262Z,10.66
2022-11-27T17:47:29.148Z,12.59
2022-11-27T17:48:51.402Z,12.01
2022-11-27T17:50:13.101Z,13.90
2022-11-27T17:51:39.326Z,14.07
2022-11-27T17:52:58.739Z,13.96
2022-11-27T17:54:19.809Z,15.52
2022-11-27T17:55:42.433Z,16.99
2022-11-27T17:57:03.783Z,14.14
2022-11-27T17:58:27.139Z,15.87
2022-11-27T18:01:20.973Z,15.99
2022-11-27T18:02:42.707Z,13.53
2022-11-27T18:04:06.029Z,19.07
2022-11-27T18:06:48.538Z,18.37
2022-11-27T18:08:21.905Z,18.74
2022-11-27T18:09:43.557Z,17.79
2022-11-27T18:12:22.530Z,16.62
2022-11-27T18:13:45.172Z,15.21
2022-11-27T18:15:08.671Z,11.89
2022-11-27T18:16:35.991Z,19.38
2022-11-27T18:17:57.516Z,15.06
2022-11-27T18:19:19.702Z,16.48
2022-11-27T18:20:41.979Z,13.09
2022-11-27T18:22:03.664Z,15.39
2022-11-27T18:23:25.057Z,13.60
2022-11-27T18:24:46.276Z,16.69
2022-11-27T18:27:22.917Z,13.62
2022-11-27T18:28:46.279Z,13.85
2022-11-27T18:30:08.943Z,13.23
2022-11-27T18:31:30.913Z,14.32
2022-11-27T18:32:52.444Z,15.11
2022-11-27T18:34:14.873Z,14.93
2022-11-27T18:35:41.582Z,16.35
2022-11-27T18:37:03.697Z,14.38
2022-11-27T18:38:24.999Z,13.99
2022-11-27T18:39:48.962Z,16.16
2022-11-27T18:41:12.239Z,15.04
2022-11-27T18:42:33.928Z,13.96
2022-11-27T18:43:57.088Z,15.17
2022-11-27T18:45:32.334Z,15.77
2022-11-27T18:48:04.380Z,14.04
2022-11-27T18:49:26.811Z,13.79
2022-11-27T18:50:48.186Z,13.53
2022-11-27T18:52:09.243Z,16.02
2022-11-27T18:53:30.359Z,14.27
2022-11-27T18:54:52.416Z,12.94
2022-11-27T18:57:35.618Z,10.44
2022-11-27T18:59:02.005Z,17.93
2022-11-27T19:00:28.446Z,16.54
2022-11-27T19:01:50.435Z,12.62
2022-11-27T19:03:11.960Z,14.42
2022-11-27T19:04:36.474Z,13.24
2022-11-27T19:05:59.576Z,14.89
2022-11-27T19:07:21.415Z,12.51
2022-11-27T19:08:43.061Z,14.99
2022-11-27T19:10:06.679Z,15.83
2022-11-27T19:11:27.882Z,15.28
2022-11-27T19:12:49.627Z,15.84
2022-11-27T19:14:11.002Z,15.86
2022-11-27T19:15:34.844Z,16.30
2022-11-27T19:16:55.983Z,14.08
2022-11-27T19:18:20.303Z,15.32
2022-11-27T19:19:56.697Z,15.90
2022-11-27T19:22:17.969Z,16.48
2022-11-27T19:23:39.836Z,14.03
2022-11-27T19:25:01.040Z,14.44
2022-11-27T19:26:24.151Z,14.08
2022-11-27T19:29:08.120Z,14.11
2022-11-27T19:30:33.947Z,14.88
2022-11-27T19:31:52.667Z,15.57
2022-11-27T19:33:14.202Z,13.52
2022-11-27T19:34:35.601Z,10.06
2022-11-27T19:36:05.711Z,12.06
2022-11-27T19:37:34.417Z,12.72
2022-11-27T19:39:06.821Z,12.88
2022-11-27T19:40:29.492Z,14.78
2022-11-27T19:41:51.636Z,14.74
2022-11-27T19:43:12.731Z,12.09
2022-11-27T19:44:34.216Z,14.58
2022-11-27T19:45:58.189Z,14.63
2022-11-27T19:47:19.824Z,14.26
2022-11-27T19:48:41.383Z,16.46
2022-11-27T19:50:02.784Z,12.68
2022-11-27T19:51:24.878Z,14.38
2022-11-27T19:52:46.254Z,12.86
2022-11-27T19:54:10.224Z,13.63
2022-11-27T19:55:31.808Z,13.07
2022-11-27T19:56:53.478Z,13.24
2022-11-27T19:58:15.632Z,13.52
2022-11-27T19:59:39.045Z,14.08
2022-11-27T20:01:05.339Z,11.14
2022-11-27T20:02:27.019Z,11.78
2022-11-27T20:03:54.242Z,13.81
2022-11-27T20:05:16.591Z,15.08
2022-11-27T20:06:38.075Z,10.82
2022-11-27T20:07:59.558Z,13.69
2022-11-27T20:09:20.933Z,15.69
2022-11-27T20:10:46.149Z,14.71
2022-11-27T20:12:07.680Z,16.77
2022-11-27T20:13:29.046Z,16.39
2022-11-27T20:14:50.816Z,15.92
2022-11-27T20:16:14.587Z,16.05
2022-11-27T20:19:00.975Z,15.03
2022-11-27T20:20:22.133Z,15.93
2022-11-27T20:21:44.760Z,15.76
2022-11-27T20:24:29.349Z,12.50
2022-11-27T20:25:50.620Z,11.04
2022-11-27T20:27:13.369Z,16.87
2022-11-27T20:28:34.461Z,10.21
2022-11-27T20:29:55.916Z,14.14
2022-11-27T20:31:21.463Z,12.46
2022-11-27T20:32:43.418Z,13.21
2022-11-27T20:34:05.264Z,12.82
2022-11-27T20:35:27.803Z,13.86
2022-11-27T20:36:49.312Z,14.46
2022-11-27T20:38:12.603Z,13.51
2022-11-27T20:39:34.752Z,13.48
2022-11-27T20:40:56.553Z,12.01
2022-11-27T20:42:17.636Z,14.22
2022-11-27T20:43:39.125Z,10.95
2022-11-27T20:45:00.488Z,10.52
2022-11-27T20:46:22.339Z,9.78
2022-11-27T20:47:43.647Z,9.66
2022-11-27T20:49:04.663Z,9.83
2022-11-27T20:50:26.306Z,9.74
2022-11-27T20:51:47.449Z,9.61
2022-11-27T20:53:08.938Z,10.37
2022-11-27T20:54:30.708Z,8.57
2022-11-27T20:55:52.003Z,9.12
2022-11-27T20:57:13.612Z,9.75
2022-11-27T20:58:35.666Z,9.98
2022-11-27T20:59:57.018Z,10.42
2022-11-27T21:01:32.920Z,12.47
2022-11-27T21:02:54.176Z,9.74
2022-11-27T21:04:20.030Z,9.83
2022-11-27T21:05:41.747Z,10.28
2022-11-27T21:07:02.930Z,11.76
2022-11-27T21:08:35.329Z,11.28
2022-11-27T21:09:56.905Z,11.89
2022-11-27T21:11:20.081Z,12.31
2022-11-27T21:12:42.412Z,10.84
2022-11-27T21:14:05.466Z,13.22
2022-11-27T21:15:26.375Z,12.31
2022-11-27T21:16:48.436Z,12.26
2022-11-27T21:18:18.776Z,11.99
2022-11-27T21:19:46.093Z,11.36
2022-11-27T21:21:11.575Z,10.59
2022-11-27T21:22:32.924Z,10.70
2022-11-27T21:23:54.465Z,10.72
2022-11-27T21:25:16.084Z,11.93